Time;durP1;ratioP1;P1;durP2;ratioP2;P2;SDS_P1;SDS_P2;PMS_P1;PMS_P2;Temp;Humidity;BMP_temperature;BMP_pressure;BME280_temperature;BME280_humidity;BME280_pressure;Samples;Min_cycle;Max_cycle;Signal;HPM_P1;HPM_P2
2023/11/07 00:35:53;;;;;;;5.32;1.80;;;11.00;99.90;;;;;;5121676;28;20390;-86
2023/11/07 00:38:19;;;;;;;8.95;2.28;;;11.00;99.90;;;;;;5124562;28;20019;-86
2023/11/07 00:40:44;;;;;;;5.90;1.88;;;10.90;99.90;;;;;;5099279;28;20028;-85
2023/11/07 00:43:10;;;;;;;3.15;1.80;;;10.90;99.90;;;;;;5120424;28;20108;-86
2023/11/07 00:45:36;;;;;;;4.00;1.85;;;10.80;99.90;;;;;;5122509;28;20428;-87
2023/11/07 00:48:02;;;;;;;5.28;1.95;;;10.90;99.90;;;;;;5121241;28;20020;-86
2023/11/07 00:50:28;;;;;;;3.08;1.73;;;10.90;99.90;;;;;;5123813;28;20011;-86
2023/11/07 00:52:53;;;;;;;5.43;1.77;;;10.90;99.90;;;;;;5120932;28;20101;-86
2023/11/07 00:55:19;;;;;;;4.25;1.55;;;10.90;99.90;;;;;;5120731;28;20020;-86
2023/11/07 00:57:45;;;;;;;5.28;1.67;;;11.00;99.90;;;;;;5103529;28;20105;-86
2023/11/07 01:00:13;;;;;;;7.75;2.40;;;10.90;99.90;;;;;;5104488;28;20538;-86
2023/11/07 01:02:39;;;;;;;6.35;2.08;;;10.90;99.90;;;;;;5105964;28;20118;-86
2023/11/07 01:05:05;;;;;;;3.55;1.75;;;10.90;99.90;;;;;;5122872;28;20423;-86
2023/11/07 01:07:31;;;;;;;4.35;1.42;;;10.90;99.90;;;;;;5103811;28;20023;-86
2023/11/07 01:09:57;;;;;;;3.70;1.90;;;11.00;99.90;;;;;;5120597;28;20019;-86
2023/11/07 01:12:23;;;;;;;9.38;1.77;;;11.00;99.90;;;;;;5103825;28;20403;-86
2023/11/07 01:14:49;;;;;;;4.95;1.83;;;11.00;99.90;;;;;;5124236;27;20499;-86
2023/11/07 01:17:15;;;;;;;5.38;1.83;;;11.00;99.90;;;;;;5127853;27;20086;-86
2023/11/07 01:19:40;;;;;;;5.03;2.08;;;10.90;99.90;;;;;;5125281;27;20019;-86
2023/11/07 01:22:06;;;;;;;6.40;1.73;;;10.90;99.90;;;;;;5126821;27;20034;-86
2023/11/07 01:24:32;;;;;;;7.55;1.80;;;10.90;99.90;;;;;;5105647;28;20451;-86
2023/11/07 01:26:58;;;;;;;4.82;1.75;;;10.90;99.90;;;;;;5126762;27;20051;-86
2023/11/07 01:29:23;;;;;;;4.25;1.70;;;10.90;99.90;;;;;;5104931;27;20551;-86
2023/11/07 01:31:49;;;;;;;8.85;2.03;;;10.90;99.90;;;;;;5125868;27;20139;-86
2023/11/07 01:34:15;;;;;;;4.40;2.05;;;10.90;99.90;;;;;;5124211;27;20024;-85
2023/11/07 01:36:41;;;;;;;4.70;1.50;;;10.80;99.90;;;;;;5108750;27;20084;-85
2023/11/07 01:39:08;;;;;;;4.85;1.88;;;10.90;99.90;;;;;;5124072;27;20028;-86
2023/11/07 01:41:34;;;;;;;4.90;1.98;;;10.90;99.90;;;;;;5125256;27;20019;-85
2023/11/07 01:44:00;;;;;;;6.63;1.60;;;10.80;99.90;;;;;;5107389;27;20040;-87
2023/11/07 01:46:27;;;;;;;5.03;1.50;;;10.80;99.90;;;;;;5108437;27;20048;-86
2023/11/07 01:48:56;;;;;;;4.18;1.80;;;10.90;99.90;;;;;;5119997;27;20098;-86
2023/11/07 01:51:24;;;;;;;5.75;1.88;;;10.90;99.90;;;;;;5124933;27;20043;-86
2023/11/07 01:53:52;;;;;;;6.68;1.92;;;10.80;99.90;;;;;;5126300;27;20051;-86
2023/11/07 01:56:18;;;;;;;5.85;1.65;;;10.90;99.90;;;;;;5105094;28;20503;-87
2023/11/07 01:58:44;;;;;;;8.90;1.70;;;10.90;99.90;;;;;;5125662;27;20015;-85
2023/11/07 02:01:10;;;;;;;4.05;1.20;;;10.90;99.90;;;;;;5106557;27;20030;-85
2023/11/07 02:03:38;;;;;;;3.22;1.63;;;10.90;99.90;;;;;;5105472;28;20292;-85
2023/11/07 02:06:05;;;;;;;6.03;1.70;;;10.90;99.90;;;;;;5108070;27;20108;-86
2023/11/07 02:08:31;;;;;;;2.63;1.08;;;10.90;99.90;;;;;;5123617;27;20388;-86
2023/11/07 02:10:56;;;;;;;3.70;1.60;;;10.90;99.90;;;;;;5124828;27;20031;-86
2023/11/07 02:13:22;;;;;;;3.92;1.50;;;11.00;99.90;;;;;;5122138;27;20069;-86
2023/11/07 02:15:48;;;;;;;10.52;2.00;;;11.00;99.90;;;;;;5125995;27;20027;-85
2023/11/07 02:18:14;;;;;;;3.72;1.73;;;10.90;99.90;;;;;;5122711;27;20024;-86
2023/11/07 02:20:40;;;;;;;4.22;2.15;;;10.90;99.90;;;;;;5106921;27;20424;-85
2023/11/07 02:23:11;;;;;;;4.47;1.80;;;10.90;99.90;;;;;;5105808;28;20081;-86
2023/11/07 02:25:40;;;;;;;6.00;1.63;;;10.90;99.90;;;;;;5104504;28;20028;-86
2023/11/07 02:28:07;;;;;;;7.15;1.77;;;10.90;99.90;;;;;;5101167;27;20020;-85
2023/11/07 02:30:33;;;;;;;3.35;1.40;;;11.00;99.90;;;;;;5106953;27;20110;-86
2023/11/07 02:33:04;;;;;;;2.97;1.35;;;11.00;99.90;;;;;;5119816;27;20028;-86
2023/11/07 02:35:31;;;;;;;2.78;1.38;;;11.00;99.90;;;;;;5124649;27;20043;-86
2023/11/07 02:37:57;;;;;;;8.85;1.80;;;11.10;99.90;;;;;;5123259;27;20015;-86
2023/11/07 02:40:23;;;;;;;3.45;1.90;;;11.00;99.90;;;;;;5123859;27;20019;-86
2023/11/07 02:42:48;;;;;;;6.38;1.63;;;11.00;99.90;;;;;;5121620;27;20031;-86
2023/11/07 02:45:14;;;;;;;5.43;1.50;;;11.00;99.90;;;;;;5125878;27;20564;-86
2023/11/07 02:47:40;;;;;;;6.10;1.67;;;11.00;99.90;;;;;;5106658;27;20293;-85
2023/11/07 02:50:07;;;;;;;3.03;1.52;;;11.00;99.90;;;;;;5105090;27;20020;-86
2023/11/07 02:52:35;;;;;;;5.57;1.45;;;11.00;99.90;;;;;;5122886;27;20059;-84
2023/11/07 02:55:01;;;;;;;5.05;1.33;;;11.10;99.90;;;;;;5107099;27;20023;-85
2023/11/07 02:57:26;;;;;;;5.78;1.65;;;11.10;99.90;;;;;;5118072;27;20024;-86
2023/11/07 02:59:52;;;;;;;6.43;1.75;;;11.10;99.90;;;;;;5121930;27;20069;-85
2023/11/07 03:02:18;;;;;;;7.47;1.70;;;11.10;99.90;;;;;;5123529;27;20064;-85
2023/11/07 03:04:44;;;;;;;6.40;1.42;;;11.20;99.90;;;;;;5124475;27;20065;-86
2023/11/07 03:07:10;;;;;;;6.03;1.70;;;11.20;99.90;;;;;;5122040;27;20039;-86
2023/11/07 03:09:35;;;;;;;4.25;1.50;;;11.20;99.90;;;;;;5124795;27;20019;-85
2023/11/07 03:12:02;;;;;;;4.53;1.35;;;11.10;99.90;;;;;;5125003;27;20424;-85
2023/11/07 03:14:28;;;;;;;4.93;1.40;;;11.10;99.90;;;;;;5102743;27;20110;-85
2023/11/07 03:16:55;;;;;;;6.18;1.70;;;11.10;99.90;;;;;;5106125;27;20051;-85
2023/11/07 03:19:21;;;;;;;2.45;1.35;;;11.20;99.90;;;;;;5103399;27;20035;-85
2023/11/07 03:21:47;;;;;;;5.45;1.60;;;11.20;99.90;;;;;;5124221;27;20387;-86
2023/11/07 03:24:12;;;;;;;3.42;1.55;;;11.20;99.90;;;;;;5104741;27;20114;-84
2023/11/07 03:26:39;;;;;;;4.88;1.63;;;11.20;99.90;;;;;;5104062;28;20032;-84
2023/11/07 03:29:04;;;;;;;3.97;1.40;;;11.20;99.90;;;;;;5124618;27;20019;-85
2023/11/07 03:31:31;;;;;;;4.32;1.25;;;11.20;99.90;;;;;;5104156;27;20035;-85
2023/11/07 03:33:56;;;;;;;5.50;1.50;;;11.20;99.90;;;;;;5123590;27;20144;-86
2023/11/07 03:36:22;;;;;;;4.78;1.73;;;11.30;99.90;;;;;;5122082;27;20091;-85
2023/11/07 03:38:48;;;;;;;2.03;1.27;;;11.20;99.90;;;;;;5103791;28;20020;-85
2023/11/07 03:41:13;;;;;;;5.68;1.90;;;11.20;99.90;;;;;;5124488;27;20428;-85
2023/11/07 03:43:40;;;;;;;4.90;1.50;;;11.30;99.90;;;;;;5124086;27;20027;-86
2023/11/07 03:46:06;;;;;;;3.60;1.52;;;11.20;99.90;;;;;;5104172;27;20174;-85
2023/11/07 03:48:32;;;;;;;7.78;1.88;;;11.30;99.90;;;;;;5120903;27;20090;-85
2023/11/07 03:50:58;;;;;;;4.05;1.50;;;11.20;99.90;;;;;;5102980;28;20114;-85
2023/11/07 03:53:23;;;;;;;3.72;1.23;;;11.30;99.90;;;;;;5124363;27;20065;-86
2023/11/07 03:55:50;;;;;;;3.92;1.73;;;11.30;99.90;;;;;;5121531;27;20024;-84
2023/11/07 03:58:16;;;;;;;4.38;1.48;;;11.20;99.90;;;;;;5102716;28;20031;-84
2023/11/07 04:00:43;;;;;;;4.32;1.77;;;11.30;99.90;;;;;;5104993;28;20031;-85
2023/11/07 04:03:09;;;;;;;4.28;1.25;;;11.30;99.90;;;;;;5102681;28;20455;-85
2023/11/07 04:05:34;;;;;;;2.90;1.27;;;11.30;99.90;;;;;;5124049;28;20062;-85
2023/11/07 04:08:00;;;;;;;5.18;1.63;;;11.40;99.90;;;;;;5107136;28;20038;-85
2023/11/07 04:10:25;;;;;;;4.03;1.63;;;11.30;99.90;;;;;;5103878;28;20119;-85
2023/11/07 04:12:51;;;;;;;4.32;1.17;;;11.30;99.90;;;;;;5105238;28;20494;-86
2023/11/07 04:15:17;;;;;;;3.40;1.55;;;11.30;99.90;;;;;;5120861;28;20511;-85
2023/11/07 04:17:46;;;;;;;3.40;1.50;;;11.40;99.90;;;;;;5120953;28;20020;-85
2023/11/07 04:20:13;;;;;;;4.13;1.50;;;11.40;99.90;;;;;;5122531;28;20023;-85
2023/11/07 04:22:39;;;;;;;3.33;1.52;;;11.40;99.90;;;;;;5105157;28;20015;-86
2023/11/07 04:25:06;;;;;;;2.60;1.42;;;11.40;99.90;;;;;;5120644;28;20020;-85
2023/11/07 04:27:32;;;;;;;3.88;1.60;;;11.40;99.90;;;;;;5123814;28;20041;-85
2023/11/07 04:29:58;;;;;;;2.50;1.25;;;11.40;99.90;;;;;;5105044;28;20046;-85
2023/11/07 04:32:25;;;;;;;7.78;1.42;;;11.40;99.90;;;;;;5101514;28;20194;-85
2023/11/07 04:34:52;;;;;;;5.20;1.30;;;11.40;99.90;;;;;;5123931;28;20393;-85
2023/11/07 04:37:18;;;;;;;7.97;1.27;;;11.40;99.90;;;;;;5116771;28;20173;-85
2023/11/07 04:39:44;;;;;;;4.20;1.23;;;11.40;99.90;;;;;;5118536;28;20130;-85
2023/11/07 04:42:09;;;;;;;3.15;1.13;;;11.40;99.90;;;;;;5122330;28;20035;-85
2023/11/07 04:44:35;;;;;;;1.92;1.50;;;11.40;99.90;;;;;;5119299;28;20028;-85
2023/11/07 04:47:05;;;;;;;2.80;1.10;;;11.40;99.90;;;;;;5124448;27;20023;-85
2023/11/07 04:49:33;;;;;;;4.88;1.10;;;11.40;99.90;;;;;;5125221;27;20020;-85
2023/11/07 04:51:59;;;;;;;4.85;1.02;;;11.30;99.90;;;;;;5125397;27;20113;-84
2023/11/07 04:54:25;;;;;;;6.53;1.73;;;11.40;99.90;;;;;;5127384;27;20448;-86
2023/11/07 04:56:54;;;;;;;5.75;1.90;;;11.30;99.90;;;;;;5109442;27;20024;-85
2023/11/07 04:59:22;;;;;;;4.03;1.20;;;11.30;99.90;;;;;;5105976;27;20406;-85
2023/11/07 05:01:49;;;;;;;3.92;1.60;;;11.30;99.90;;;;;;5107656;27;20062;-85
2023/11/07 05:04:15;;;;;;;5.85;1.40;;;11.30;99.90;;;;;;5124241;27;20141;-85
2023/11/07 05:06:41;;;;;;;7.10;1.60;;;11.30;99.90;;;;;;5120408;27;20087;-85
2023/11/07 05:09:09;;;;;;;7.10;1.20;;;11.20;99.90;;;;;;5126561;27;20063;-85
2023/11/07 05:11:38;;;;;;;6.22;1.38;;;11.20;99.90;;;;;;5125903;27;20103;-85
2023/11/07 05:14:03;;;;;;;4.00;1.25;;;11.20;99.90;;;;;;5124071;27;20027;-85
2023/11/07 05:16:29;;;;;;;7.32;1.70;;;11.20;99.90;;;;;;5102020;27;20016;-85
2023/11/07 05:18:55;;;;;;;1.45;1.00;;;11.10;99.90;;;;;;5126114;27;20549;-85
2023/11/07 05:21:21;;;;;;;4.32;1.00;;;11.10;99.90;;;;;;5125571;27;20032;-84
2023/11/07 05:23:47;;;;;;;4.32;1.30;;;11.10;99.90;;;;;;5124649;27;20391;-85
2023/11/07 05:26:13;;;;;;;5.18;1.35;;;11.10;99.90;;;;;;5127032;27;20023;-85
2023/11/07 05:28:39;;;;;;;3.22;1.20;;;11.10;99.90;;;;;;5105909;27;20008;-86
2023/11/07 05:31:05;;;;;;;2.78;1.17;;;11.10;99.90;;;;;;5125871;27;20019;-85
2023/11/07 05:33:32;;;;;;;4.07;1.20;;;11.10;99.90;;;;;;5125698;27;20031;-85
2023/11/07 05:35:58;;;;;;;4.63;1.48;;;11.10;99.90;;;;;;5123841;27;20473;-84
2023/11/07 05:38:24;;;;;;;2.17;1.30;;;11.00;99.90;;;;;;5108475;27;20027;-85
2023/11/07 05:40:50;;;;;;;3.95;1.27;;;11.00;99.90;;;;;;5124118;27;20501;-85
2023/11/07 05:43:18;;;;;;;4.85;1.45;;;11.00;99.90;;;;;;5106888;27;20263;-85
2023/11/07 05:45:44;;;;;;;4.85;1.27;;;11.00;99.90;;;;;;5104634;28;20058;-86
2023/11/07 05:48:10;;;;;;;5.38;1.60;;;11.00;99.90;;;;;;5104568;27;20051;-84
2023/11/07 05:50:35;;;;;;;3.67;1.27;;;11.00;99.90;;;;;;5126239;27;20027;-84
2023/11/07 05:53:01;;;;;;;3.50;1.40;;;11.00;99.90;;;;;;5126348;27;20055;-85
2023/11/07 05:55:27;;;;;;;3.15;1.30;;;11.00;99.90;;;;;;5104350;27;20440;-85
2023/11/07 05:57:53;;;;;;;11.30;2.00;;;11.00;99.90;;;;;;5122120;27;20028;-85
2023/11/07 06:00:19;;;;;;;5.10;1.70;;;11.00;99.90;;;;;;5125143;27;20505;-85
2023/11/07 06:02:46;;;;;;;6.22;1.58;;;11.00;99.90;;;;;;5106958;27;20363;-85
2023/11/07 06:05:11;;;;;;;3.95;1.40;;;11.00;99.90;;;;;;5124498;27;20026;-85
2023/11/07 06:07:38;;;;;;;10.40;2.05;;;11.00;99.90;;;;;;5127068;27;20015;-85
2023/11/07 06:10:04;;;;;;;5.63;1.30;;;11.00;99.90;;;;;;5123237;27;20023;-85
2023/11/07 06:12:30;;;;;;;4.13;1.80;;;11.00;99.90;;;;;;5125802;27;20023;-86
2023/11/07 06:14:56;;;;;;;4.40;1.70;;;11.10;99.90;;;;;;5108344;27;20023;-85
2023/11/07 06:17:21;;;;;;;7.53;2.85;;;11.00;99.90;;;;;;5106181;27;20035;-85
2023/11/07 06:19:47;;;;;;;9.90;3.08;;;11.00;99.90;;;;;;5107498;28;20026;-85
2023/11/07 06:22:16;;;;;;;5.78;2.50;;;11.10;99.90;;;;;;5104130;27;20058;-85
2023/11/07 06:24:43;;;;;;;3.95;2.72;;;11.00;99.90;;;;;;5124976;27;20062;-85
2023/11/07 06:27:08;;;;;;;7.40;2.90;;;11.00;99.90;;;;;;5126925;27;20020;-86
2023/11/07 06:29:34;;;;;;;5.40;1.70;;;11.00;99.90;;;;;;5103618;28;20065;-85
2023/11/07 06:32:00;;;;;;;5.75;2.55;;;11.00;99.90;;;;;;5125784;27;20015;-85
2023/11/07 06:34:26;;;;;;;5.30;1.90;;;11.10;99.90;;;;;;5123594;27;20019;-85
2023/11/07 06:36:52;;;;;;;4.18;1.60;;;11.10;99.90;;;;;;5106550;27;20034;-86
2023/11/07 06:39:18;;;;;;;4.10;1.38;;;11.00;99.90;;;;;;5124484;27;20028;-84
2023/11/07 06:41:44;;;;;;;5.75;1.67;;;11.10;99.90;;;;;;5122623;27;20035;-85
2023/11/07 06:44:11;;;;;;;7.35;1.92;;;11.10;99.90;;;;;;5121601;27;20207;-85
2023/11/07 06:46:43;;;;;;;11.38;1.60;;;11.00;99.90;;;;;;5124562;27;20023;-85
2023/11/07 06:49:09;;;;;;;;;;;11.00;99.90;;;;;;5106851;27;20026;-85
2023/11/07 06:51:35;;;;;;;6.47;1.60;;;11.00;99.90;;;;;;5126052;27;20294;-85
2023/11/07 06:54:04;;;;;;;6.22;1.55;;;11.00;99.90;;;;;;5106891;27;20027;-85
2023/11/07 06:56:30;;;;;;;3.22;1.63;;;11.00;99.90;;;;;;5123272;27;20749;-85
2023/11/07 06:58:56;;;;;;;5.18;2.00;;;11.00;99.90;;;;;;5122739;27;20024;-85
2023/11/07 07:01:25;;;;;;;5.65;1.75;;;11.00;99.90;;;;;;5126082;27;20015;-85
2023/11/07 07:03:54;;;;;;;6.38;1.80;;;11.10;99.90;;;;;;5118325;27;20028;-85
2023/11/07 07:06:24;;;;;;;4.38;1.55;;;11.00;99.90;;;;;;5104819;27;20019;-85
2023/11/07 07:08:51;;;;;;;8.07;2.53;;;11.10;99.90;;;;;;5124667;27;20022;-84
2023/11/07 07:11:20;;;;;;;4.43;1.60;;;11.10;99.90;;;;;;5117910;27;20020;-85
2023/11/07 07:13:46;;;;;;;4.78;2.00;;;11.10;99.90;;;;;;5123595;27;20068;-84
2023/11/07 07:16:13;;;;;;;4.22;2.35;;;11.10;99.90;;;;;;5105745;27;20135;-85
2023/11/07 07:18:40;;;;;;;7.28;2.15;;;11.20;99.90;;;;;;5103046;27;20096;-84
2023/11/07 07:21:07;;;;;;;9.00;1.73;;;11.20;99.90;;;;;;5121811;27;20475;-84
2023/11/07 07:23:36;;;;;;;5.63;2.00;;;11.20;99.90;;;;;;5123287;27;20022;-85
2023/11/07 07:26:08;;;;;;;11.35;2.97;;;11.30;99.90;;;;;;5105715;27;20034;-85
2023/11/07 07:28:38;;;;;;;6.05;2.33;;;11.30;99.90;;;;;;5098896;28;20148;-84
2023/11/07 07:31:06;;;;;;;6.57;2.20;;;11.30;99.90;;;;;;5104736;28;20023;-84
2023/11/07 07:33:37;;;;;;;10.15;2.28;;;11.30;99.90;;;;;;5120423;27;20535;-85
2023/11/07 07:36:04;;;;;;;5.75;2.10;;;11.30;99.90;;;;;;5100068;28;20383;-85
2023/11/07 07:38:35;;;;;;;9.80;2.72;;;11.40;99.90;;;;;;5104577;27;20031;-84
2023/11/07 07:41:01;;;;;;;8.07;2.63;;;11.40;99.90;;;;;;5123907;27;20050;-84
2023/11/07 07:43:27;;;;;;;8.88;2.63;;;11.40;99.90;;;;;;5120243;27;20076;-85
2023/11/07 07:45:55;;;;;;;5.95;2.20;;;11.40;99.90;;;;;;5103686;27;20035;-85
2023/11/07 07:48:22;;;;;;;6.97;1.90;;;11.50;99.90;;;;;;5122277;27;20030;-84
2023/11/07 07:50:48;;;;;;;6.65;2.03;;;11.50;99.90;;;;;;5105283;27;20019;-85
2023/11/07 07:53:17;;;;;;;4.30;1.67;;;11.60;99.90;;;;;;5102752;28;20024;-84
2023/11/07 07:55:43;;;;;;;11.38;2.70;;;11.60;99.90;;;;;;5123365;27;20490;-85
2023/11/07 07:58:18;;;;;;;7.95;2.10;;;11.60;99.90;;;;;;5122780;27;20035;-85
2023/11/07 08:00:49;;;;;;;5.20;2.25;;;11.60;99.90;;;;;;5116232;28;20014;-84
2023/11/07 08:03:16;;;;;;;7.18;2.20;;;11.70;99.90;;;;;;5101203;28;20056;-85
2023/11/07 08:05:44;;;;;;;8.23;1.98;;;11.80;99.90;;;;;;5101939;28;20076;-84
2023/11/07 08:08:14;;;;;;;4.35;1.98;;;11.80;99.90;;;;;;5105542;28;20359;-85
2023/11/07 08:10:40;;;;;;;6.18;2.05;;;11.90;99.90;;;;;;5124020;28;20039;-85
2023/11/07 08:13:09;;;;;;;5.30;1.88;;;11.90;99.90;;;;;;5104094;28;20397;-85
2023/11/07 08:15:36;;;;;;;7.82;2.63;;;11.90;99.90;;;;;;5119952;28;20490;-84
2023/11/07 08:18:05;;;;;;;4.63;1.90;;;12.00;99.90;;;;;;5120830;28;20099;-85
2023/11/07 08:20:33;;;;;;;5.75;1.80;;;12.00;99.90;;;;;;5101182;28;20033;-84
2023/11/07 08:22:59;;;;;;;4.47;2.30;;;12.10;99.90;;;;;;5104560;28;20020;-84
2023/11/07 08:25:27;;;;;;;3.47;2.25;;;12.10;99.90;;;;;;5128029;27;20030;-84
2023/11/07 08:27:53;;;;;;;7.90;2.58;;;12.20;99.90;;;;;;5107245;28;20019;-84
2023/11/07 08:30:23;;;;;;;6.57;2.20;;;12.20;99.90;;;;;;5124573;27;20023;-84
2023/11/07 08:32:50;;;;;;;4.85;2.08;;;12.20;99.90;;;;;;5124723;27;20045;-83
2023/11/07 08:35:16;;;;;;;3.90;1.95;;;12.30;99.90;;;;;;5124117;27;20034;-84
2023/11/07 08:37:46;;;;;;;4.13;2.10;;;12.20;99.90;;;;;;5107008;27;20043;-84
2023/11/07 08:40:12;;;;;;;3.90;2.08;;;12.30;99.90;;;;;;5107229;27;20026;-84
2023/11/07 08:42:43;;;;;;;9.20;2.70;;;12.30;99.90;;;;;;5127754;27;20027;-84
2023/11/07 08:45:18;;;;;;;8.27;2.10;;;12.30;99.90;;;;;;5120987;27;20537;-84
2023/11/07 08:47:52;;;;;;;6.10;2.25;;;12.30;99.90;;;;;;5102871;28;20620;-84
2023/11/07 08:50:19;;;;;;;7.53;2.78;;;12.40;99.90;;;;;;5122355;27;20390;-84
2023/11/07 08:52:47;;;;;;;6.45;1.90;;;12.50;99.90;;;;;;5125183;27;20048;-84
2023/11/07 08:55:16;;;;;;;3.60;2.13;;;12.50;99.90;;;;;;5127336;27;20016;-84
2023/11/07 08:57:49;;;;;;;6.95;2.83;;;12.50;99.90;;;;;;5102885;27;20019;-84
2023/11/07 09:00:21;;;;;;;4.75;2.78;;;12.60;99.90;;;;;;5125175;27;20173;-84
2023/11/07 09:02:50;;;;;;;;;;;12.70;99.90;;;;;;5116280;27;20023;-84
2023/11/07 09:05:16;;;;;;;5.93;2.33;;;12.80;99.90;;;;;;5124158;27;20367;-84
2023/11/07 09:07:42;;;;;;;9.63;2.63;;;12.80;99.90;;;;;;5107168;27;20036;-83
2023/11/07 09:10:08;;;;;;;5.90;2.92;;;12.80;99.90;;;;;;5108641;27;20034;-84
2023/11/07 09:12:37;;;;;;;7.50;2.28;;;12.80;99.90;;;;;;5097288;27;20031;-83
2023/11/07 09:15:06;;;;;;;4.53;2.72;;;12.90;99.90;;;;;;5124942;27;20102;-84
2023/11/07 09:17:32;;;;;;;4.38;1.90;;;12.90;99.90;;;;;;5124453;27;20019;-83
2023/11/07 09:20:01;;;;;;;6.60;2.35;;;12.90;99.90;;;;;;5108698;27;20110;-84
2023/11/07 09:22:27;;;;;;;6.70;2.40;;;12.90;99.90;;;;;;5106026;27;20043;-83
2023/11/07 09:24:53;;;;;;;9.77;2.40;;;13.00;99.90;;;;;;5127653;27;20466;-83
2023/11/07 09:27:18;;;;;;;2.30;1.88;;;13.10;99.90;;;;;;5124602;27;20012;-83
2023/11/07 09:29:45;;;;;;;9.30;1.92;;;13.20;99.90;;;;;;5127874;27;20021;-84
2023/11/07 09:32:12;;;;;;;9.57;2.38;;;13.20;95.90;;;;;;5121009;27;20463;-84
2023/11/07 09:34:40;;;;;;;6.45;2.03;;;13.30;97.30;;;;;;5126755;27;20038;-84
2023/11/07 09:37:07;;;;;;;5.82;1.98;;;13.40;99.70;;;;;;5108410;27;20023;-83
2023/11/07 09:39:34;;;;;;;7.03;2.40;;;13.50;99.70;;;;;;5124426;27;20110;-83
2023/11/07 09:41:59;;;;;;;4.93;2.17;;;13.50;97.00;;;;;;5120735;27;20027;-83
2023/11/07 09:44:27;;;;;;;7.97;2.42;;;13.50;94.90;;;;;;5126628;27;20034;-84
2023/11/07 09:46:57;;;;;;;7.25;2.75;;;13.60;93.60;;;;;;5108085;27;20387;-84
2023/11/07 09:49:23;;;;;;;6.20;2.58;;;13.60;87.40;;;;;;5124143;27;20027;-83
2023/11/07 09:51:50;;;;;;;5.05;2.53;;;13.70;70.80;;;;;;5127956;27;20043;-83
2023/11/07 09:54:22;;;;;;;12.32;2.72;;;13.80;56.10;;;;;;5107527;27;20391;-83
2023/11/07 09:56:52;;;;;;;5.65;2.75;;;13.80;73.00;;;;;;5127073;27;20026;-83
2023/11/07 09:59:49;;;;;;;5.70;2.72;;;13.90;42.60;;;;;;5120243;27;20028;-83
2023/11/07 10:02:15;;;;;;;4.03;2.08;;;13.90;40.00;;;;;;5096995;27;20547;-84
2023/11/07 10:04:44;;;;;;;6.93;2.50;;;13.90;54.80;;;;;;5124069;27;20032;-84
2023/11/07 10:07:09;;;;;;;3.95;2.50;;;14.00;78.80;;;;;;5123388;27;20023;-83
2023/11/07 10:09:35;;;;;;;5.70;2.60;;;13.90;62.20;;;;;;5107300;27;20098;-83
2023/11/07 10:12:01;;;;;;;5.07;2.80;;;13.90;77.30;;;;;;5121509;27;20081;-83
2023/11/07 10:14:26;;;;;;;5.95;2.85;;;14.00;54.00;;;;;;5107525;27;20053;-84
2023/11/07 10:16:54;;;;;;;7.13;2.78;;;14.00;52.20;;;;;;5104778;28;20039;-83
2023/11/07 10:19:22;;;;;;;14.30;3.15;;;14.00;59.00;;;;;;5119153;27;20023;-83
2023/11/07 10:21:48;;;;;;;10.05;3.10;;;14.00;65.10;;;;;;5124700;27;20015;-83
2023/11/07 10:24:14;;;;;;;6.40;2.58;;;14.00;59.20;;;;;;5107542;27;20115;-82
2023/11/07 10:26:58;;;;;;;12.63;3.75;;;14.10;73.00;;;;;;5125857;27;20030;-83
2023/11/07 10:29:30;;;;;;;7.30;4.15;;;14.10;87.30;;;;;;5103610;27;20486;-83
2023/11/07 10:32:08;;;;;;;7.55;3.85;;;14.10;76.80;;;;;;5118268;27;20024;-83
2023/11/07 10:34:35;;;;;;;9.18;3.70;;;14.20;56.40;;;;;;5106827;27;20386;-83
2023/11/07 10:37:01;;;;;;;5.68;3.50;;;14.20;68.40;;;;;;5104014;27;20032;-83
2023/11/07 10:39:28;;;;;;;11.18;4.63;;;14.30;55.40;;;;;;5106468;27;20421;-83
2023/11/07 10:41:58;;;;;;;5.35;3.80;;;14.30;53.30;;;;;;5106221;27;20027;-83
2023/11/07 10:44:25;;;;;;;8.05;4.10;;;14.50;85.40;;;;;;5120981;27;20111;-83
2023/11/07 10:46:57;;;;;;;9.52;4.22;;;14.50;52.10;;;;;;5118441;27;20051;-82
2023/11/07 10:49:24;;;;;;;9.02;4.30;;;14.40;88.10;;;;;;5123346;27;20051;-83
2023/11/07 10:51:50;;;;;;;9.63;5.07;;;14.60;91.90;;;;;;5124775;27;20049;-82
2023/11/07 10:54:20;;;;;;;10.13;4.50;;;14.60;70.70;;;;;;5121995;27;20024;-83
2023/11/07 10:56:48;;;;;;;13.63;4.88;;;14.60;80.60;;;;;;5105570;27;20070;-83
2023/11/07 10:59:22;;;;;;;11.10;4.82;;;14.60;71.50;;;;;;5105508;27;20030;-83
2023/11/07 11:01:52;;;;;;;11.57;5.07;;;14.50;82.10;;;;;;5118455;27;20023;-83
2023/11/07 11:04:20;;;;;;;10.88;4.90;;;14.50;67.40;;;;;;5123066;27;20038;-83
2023/11/07 11:06:59;;;;;;;9.95;4.85;;;14.60;90.30;;;;;;5124646;27;20057;-83
2023/11/07 11:09:27;;;;;;;13.15;5.88;;;14.70;96.10;;;;;;5120954;27;20047;-83
2023/11/07 11:11:58;;;;;;;10.80;5.53;;;14.70;93.50;;;;;;5103764;28;20016;-82
2023/11/07 11:14:25;;;;;;;16.38;6.43;;;14.70;71.10;;;;;;5118270;27;20058;-83
2023/11/07 11:16:54;;;;;;;8.75;4.97;;;14.70;97.50;;;;;;5123291;27;20027;-83
2023/11/07 11:20:02;;;;;;;8.93;5.38;;;14.70;95.00;;;;;;5123935;27;20087;-83
2023/11/07 11:23:05;;;;;;;12.45;4.80;;;14.90;92.00;;;;;;5029929;28;20037;-83
2023/11/07 11:25:48;;;;;;;8.25;4.32;;;14.90;92.00;;;;;;5001287;28;20120;-83
2023/11/07 11:28:14;;;;;;;10.05;4.30;;;15.00;77.50;;;;;;5107380;27;20041;-83
2023/11/07 11:30:40;;;;;;;11.25;4.85;;;15.10;44.00;;;;;;5124424;27;20390;-83
2023/11/07 11:33:09;;;;;;;9.48;4.13;;;15.10;54.40;;;;;;5102054;27;20050;-83
2023/11/07 11:35:39;;;;;;;6.70;3.38;;;15.20;21.90;;;;;;5123148;27;20024;-83
2023/11/07 11:38:09;;;;;;;6.72;3.70;;;15.30;16.90;;;;;;5121067;27;20023;-83
2023/11/07 11:40:51;;;;;;;9.63;3.33;;;15.30;20.30;;;;;;5123569;27;20019;-82
2023/11/07 11:43:18;;;;;;;7.18;3.33;;;15.30;35.00;;;;;;5123421;27;20024;-82
2023/11/07 11:45:45;;;;;;;3.78;2.97;;;15.30;26.20;;;;;;5123157;27;20102;-82
2023/11/07 11:48:10;;;;;;;6.25;2.55;;;15.40;20.20;;;;;;5122621;27;20510;-82
2023/11/07 11:50:37;;;;;;;8.00;3.17;;;15.40;12.60;;;;;;5102994;28;20069;-83
2023/11/07 11:53:05;;;;;;;7.07;2.58;;;15.40;7.90;;;;;;5098682;28;20456;-83
2023/11/07 11:55:58;;;;;;;5.22;2.60;;;15.40;17.70;;;;;;5100429;28;20030;-83
2023/11/07 11:58:31;;;;;;;4.03;2.25;;;15.50;1.00;;;;;;5097062;28;20058;-82
2023/11/07 12:01:03;;;;;;;7.78;3.45;;;15.40;1.00;;;;;;5102382;28;20024;-83
2023/11/07 12:03:58;;;;;;;5.15;2.95;;;15.40;1.00;;;;;;5101125;28;20082;-83
2023/11/07 12:06:24;;;;;;;4.95;2.90;;;15.40;1.00;;;;;;5097810;28;20119;-82
2023/11/07 12:08:50;;;;;;;6.80;3.35;;;15.50;1.00;;;;;;5103184;28;20047;-82
2023/11/07 12:11:16;;;;;;;5.32;2.72;;;15.50;21.40;;;;;;5100250;28;20495;-83
2023/11/07 12:13:42;;;;;;;8.27;3.20;;;15.60;17.90;;;;;;5100151;28;20046;-82
2023/11/07 12:16:19;;;;;;;9.02;3.20;;;15.50;2.80;;;;;;5101906;28;20077;-83
2023/11/07 12:18:47;;;;;;;6.82;3.20;;;15.50;19.30;;;;;;5103295;28;20378;-83
2023/11/07 12:21:24;;;;;;;5.85;3.72;;;15.40;26.10;;;;;;5103422;28;20548;-82
2023/11/07 12:23:59;;;;;;;7.22;4.00;;;15.40;23.50;;;;;;5102015;28;20028;-82
2023/11/07 12:26:38;;;;;;;7.60;3.60;;;15.40;33.40;;;;;;5101716;28;20491;-82
2023/11/07 12:29:06;;;;;;;9.80;3.92;;;15.50;11.20;;;;;;5080153;28;20049;-83
2023/11/07 12:31:36;;;;;;;9.32;3.67;;;15.50;26.20;;;;;;5102322;28;20028;-83
2023/11/07 12:34:02;;;;;;;7.50;3.80;;;15.60;25.30;;;;;;5100072;28;20066;-83
2023/11/07 12:36:29;;;;;;;7.43;3.80;;;15.60;40.90;;;;;;5101814;28;20059;-81
2023/11/07 12:38:55;;;;;;;9.02;3.95;;;15.60;20.40;;;;;;5099131;28;20031;-82
2023/11/07 12:41:21;;;;;;;9.73;4.32;;;15.70;36.40;;;;;;5095082;28;20107;-81
2023/11/07 12:43:48;;;;;;;8.75;3.30;;;15.80;1.00;;;;;;5095692;28;20028;-82
2023/11/07 12:46:16;;;;;;;5.80;3.00;;;15.80;1.00;;;;;;5098139;28;20098;-81
2023/11/07 12:48:44;;;;;;;4.57;2.30;;;15.90;1.00;;;;;;5094991;28;20020;-82
2023/11/07 12:51:11;;;;;;;6.07;2.35;;;16.00;1.00;;;;;;5094444;28;20510;-82
2023/11/07 12:53:47;;;;;;;9.30;2.83;;;16.00;1.00;;;;;;5099538;28;20290;-81
2023/11/07 12:56:16;;;;;;;5.13;2.70;;;16.00;1.00;;;;;;5091514;28;20391;-81
2023/11/07 12:58:41;;;;;;;4.90;2.63;;;16.00;1.00;;;;;;5099390;28;20105;-82
2023/11/07 13:01:07;;;;;;;5.80;2.70;;;16.00;1.00;;;;;;5101582;28;20055;-83
2023/11/07 13:03:33;;;;;;;2.63;2.40;;;16.00;1.00;;;;;;5095811;28;20043;-83
2023/11/07 13:06:10;;;;;;;3.25;2.45;;;15.90;1.00;;;;;;5100416;28;20020;-82
2023/11/07 13:08:45;;;;;;;3.65;1.85;;;15.90;1.00;;;;;;5103551;28;20027;-82
2023/11/07 13:11:19;;;;;;;4.78;2.58;;;16.00;1.00;;;;;;5104637;28;20012;-82
2023/11/07 13:13:47;;;;;;;9.55;2.50;;;16.00;1.00;;;;;;5100128;28;20502;-82
2023/11/07 13:16:14;;;;;;;2.95;2.65;;;16.00;1.00;;;;;;5105650;28;20035;-82
2023/11/07 13:18:44;;;;;;;4.00;2.58;;;15.90;1.00;;;;;;5104749;28;20156;-82
2023/11/07 13:21:11;;;;;;;3.63;2.25;;;15.90;1.00;;;;;;5103405;28;20050;-82
2023/11/07 13:23:38;;;;;;;7.15;2.70;;;15.80;1.00;;;;;;5101072;28;20383;-82
2023/11/07 13:26:05;;;;;;;3.97;2.33;;;15.80;1.00;;;;;;5103860;28;20107;-82